< Typhoon 196525 1965 Season Typhoon 196527 >
Typhoon 196526 (WENDY)
General InformationTrack Information on Google Maps || Disaster Info.ResourceGoogle EarthGE AnimationAtom FeedGeoJSON
Detalied Best Track (Time Zone = UTC)
Year Month Day Hour Lat. Long. Pressure (hPa) Wind (kt) Class Image Chart
1965 9 15 18 7.6 152.9 1006 0 2 -- Chart
1965 9 16 00 7.9 152.0 1007 0 2 -- Chart
1965 9 16 06 8.3 151.2 1005 0 2 -- Chart
1965 9 16 12 9.0 150.8 1004 0 2 -- Chart
1965 9 16 18 9.7 150.4 1000 0 2 -- Chart
1965 9 17 00 10.6 150.0 1000 0 9 -- Chart
1965 9 17 06 11.5 149.7 1000 0 9 -- Chart
1965 9 17 12 12.2 149.0 1000 0 9 -- Chart
1965 9 17 18 13.0 148.5 1000 0 9 -- Chart
1965 9 18 00 14.0 148.0 1000 0 9 -- Chart
1965 9 18 06 14.5 147.6 1000 0 9 -- Chart
1965 9 18 12 15.0 147.0 1000 0 9 -- Chart
1965 9 18 18 15.4 146.5 1000 0 9 -- Chart
1965 9 19 00 16.0 145.5 1000 0 9 -- Chart
1965 9 19 06 16.3 144.5 1000 0 9 -- Chart
1965 9 19 12 16.8 143.6 1000 0 9 -- Chart
1965 9 19 18 17.2 142.6 1000 0 9 -- Chart
1965 9 20 00 18.0 141.4 1000 0 9 -- Chart
1965 9 20 06 18.9 140.1 1000 0 9 -- Chart
1965 9 20 12 19.8 138.7 1002 0 9 -- Chart
1965 9 20 18 20.5 137.3 1004 0 9 -- Chart
1965 9 21 00 21.5 136.0 1004 0 9 -- Chart
1965 9 21 06 22.2 134.9 998 0 9 -- Chart
1965 9 21 12 22.3 134.0 994 0 9 -- Chart
1965 9 21 18 22.5 133.5 990 0 9 -- Chart
1965 9 22 00 22.7 133.1 990 0 9 -- Chart
1965 9 22 06 23.0 132.8 988 0 9 -- Chart
1965 9 22 12 23.2 132.7 986 0 9 -- Chart
1965 9 22 18 23.5 132.6 986 0 9 -- Chart
1965 9 23 00 23.9 132.6 986 0 9 -- Chart
1965 9 23 06 24.7 132.6 988 0 9 -- Chart
1965 9 23 12 25.5 132.9 988 0 9 -- Chart
1965 9 23 18 26.0 133.0 988 0 9 -- Chart
1965 9 24 00 26.6 133.3 990 0 9 -- Chart
1965 9 24 06 28.2 134.3 990 0 9 -- Chart
1965 9 24 12 30.0 135.7 992 0 9 -- Chart
1965 9 24 18 31.0 137.0 995 0 9 -- Chart
1965 9 25 00 31.7 138.3 995 0 9 -- Chart
1965 9 25 06 32.6 140.1 995 0 9 -- Chart
1965 9 25 12 33.5 142.0 995 0 9 -- Chart
1965 9 25 18 35.0 143.8 990 0 9 -- Chart
1965 9 26 00 36.4 145.0 990 0 6 -- Chart
1965 9 26 06 37.7 145.8 985 0 6 -- Chart
1965 9 26 12 38.8 146.3 980 0 6 -- Chart
1965 9 26 18 39.5 147.6 980 0 6 -- Chart
1965 9 27 00 40.2 150.0 982 0 6 -- Chart
1965 9 27 06 41.0 153.0 986 0 6 -- Chart
1965 9 27 12 41.5 155.9 994 0 6 -- Chart
1965 9 27 18 42.9 158.1 996 0 6 -- Chart
1965 9 28 00 44.0 160.0 998 0 6 -- Chart
1965 9 28 06 45.1 161.2 1002 0 6 -- Chart
1965 9 28 12 46.5 161.8 1004 0 6 -- Chart
1965 9 28 18 47.5 162.0 1006 0 6 -- Chart
1965 9 29 00 48.0 162.0 1008 0 6 -- Chart
1965 9 29 06 48.8 162.2 1009 0 6 -- Chart
1965 9 29 12 49.8 162.8 1009 0 6 -- Chart
1965 9 29 18 51.0 164.0 1009 0 6 -- Chart
1965 9 30 00 52.4 165.3 1009 0 6 -- Chart
1965 9 30 06 53.0 169.0 1006 0 6 -- Chart
1965 9 30 12 53.0 173.8 1006 0 6 -- Chart
1965 9 30 18 52.0 176.0 1010 0 6 -- Chart
Japan Meteorological Agency Best Track Data | Correction Date : 1989-06-01
< Typhoon 196525 1965 Season Typhoon 196527 >

Help